Time;durP1;ratioP1;P1;durP2;ratioP2;P2;SDS_P1;SDS_P2;PMS_P1;PMS_P2;Temp;Humidity;BMP_temperature;BMP_pressure;BME280_temperature;BME280_humidity;BME280_pressure;Samples;Min_cycle;Max_cycle;Signal;HPM_P1;HPM_P2
2023/01/25 00:00:45;;;;;;;18.52;8.40;;;;;;;;;;6184936;23;20405;-86
2023/01/25 00:03:10;;;;;;;24.00;9.23;;;;;;;;;;6158030;23;20005;-87
2023/01/25 00:05:36;;;;;;;12.57;5.57;;;;;;;;;;6158229;23;20005;-86
2023/01/25 00:08:01;;;;;;;21.35;9.35;;;;;;;;;;6133233;23;20365;-87
2023/01/25 00:10:26;;;;;;;19.17;8.70;;;;;;;;;;6134470;23;20080;-87
2023/01/25 00:12:52;;;;;;;21.27;9.48;;;;;;;;;;6134239;23;20009;-86
2023/01/25 00:15:17;;;;;;;21.48;8.82;;;;;;;;;;6162224;23;20027;-86
2023/01/25 00:17:43;;;;;;;22.73;9.43;;;;;;;;;;6142736;23;20005;-87
2023/01/25 00:20:09;;;;;;;18.85;8.68;;;;;;;;;;6157366;23;20009;-86
2023/01/25 00:22:34;;;;;;;19.45;8.35;;;;;;;;;;6184269;23;20036;-87
2023/01/25 00:25:00;;;;;;;16.77;8.68;;;;;;;;;;6158047;23;20024;-85
2023/01/25 00:27:25;;;;;;;23.15;9.48;;;;;;;;;;6184342;23;20031;-86
2023/01/25 00:29:50;;;;;;;21.00;9.07;;;;;;;;;;6185234;23;20005;-87
2023/01/25 00:32:16;;;;;;;22.50;8.98;;;;;;;;;;6184233;23;20009;-87
2023/01/25 00:34:46;;;;;;;23.27;10.15;;;;;;;;;;6187763;23;20001;-86
2023/01/25 00:37:27;;;;;;;24.15;10.40;;;;;;;;;;6168826;23;20028;-87
2023/01/25 00:39:52;;;;;;;;;;;;;;;;;;6184934;23;20063;-88
2023/01/25 00:42:18;;;;;;;21.52;9.32;;;;;;;;;;6185058;23;19912;-86
2023/01/25 00:44:44;;;;;;;18.80;9.60;;;;;;;;;;6158201;23;19997;-87
2023/01/25 00:47:10;;;;;;;19.48;9.15;;;;;;;;;;6133411;23;20079;-85
2023/01/25 00:49:36;;;;;;;24.35;9.48;;;;;;;;;;6134471;23;20033;-87
2023/01/25 00:52:02;;;;;;;20.10;9.00;;;;;;;;;;6133653;23;20001;-87
2023/01/25 00:54:27;;;;;;;21.98;9.40;;;;;;;;;;6163224;23;20449;-87
2023/01/25 00:56:55;;;;;;;18.63;8.40;;;;;;;;;;6186438;23;20005;-88
2023/01/25 00:59:21;;;;;;;18.25;8.73;;;;;;;;;;6184390;23;20001;-86
2023/01/25 01:01:46;;;;;;;21.02;8.85;;;;;;;;;;6133084;23;20322;-87
2023/01/25 01:04:12;;;;;;;22.67;9.32;;;;;;;;;;6183750;23;20041;-86
2023/01/25 01:06:37;;;;;;;19.38;8.63;;;;;;;;;;6184030;23;20009;-86
2023/01/25 01:09:04;;;;;;;24.02;9.30;;;;;;;;;;6136665;23;20004;-86
2023/01/25 01:11:30;;;;;;;23.33;9.73;;;;;;;;;;6186028;23;20080;-87
2023/01/25 01:13:56;;;;;;;30.13;11.13;;;;;;;;;;6191220;23;20005;-86
2023/01/25 01:16:22;;;;;;;25.40;10.95;;;;;;;;;;6169083;23;20001;-86
2023/01/25 01:18:47;;;;;;;24.40;12.00;;;;;;;;;;6187396;23;20063;-87
2023/01/25 01:21:13;;;;;;;28.63;11.43;;;;;;;;;;6162478;23;20020;-87
2023/01/25 01:23:38;;;;;;;22.60;11.38;;;;;;;;;;6147379;23;20009;-87
2023/01/25 01:26:06;;;;;;;24.20;9.80;;;;;;;;;;6173794;23;20447;-86
2023/01/25 01:28:32;;;;;;;23.50;11.43;;;;;;;;;;6182631;23;20020;-86
2023/01/25 01:31:01;;;;;;;21.48;10.18;;;;;;;;;;6213295;23;20000;-87
2023/01/25 01:33:27;;;;;;;15.07;8.05;;;;;;;;;;6212398;23;20001;-87
2023/01/25 01:35:52;;;;;;;19.02;9.23;;;;;;;;;;6187139;23;19993;-85
2023/01/25 01:38:17;;;;;;;23.73;10.65;;;;;;;;;;6184992;23;20001;-86
2023/01/25 01:40:46;;;;;;;22.02;10.18;;;;;;;;;;6198720;23;19997;-87
2023/01/25 01:43:25;;;;;;;20.83;10.63;;;;;;;;;;6135406;23;20437;-87
2023/01/25 01:45:54;;;;;;;20.92;8.88;;;;;;;;;;6162488;23;20020;-88
2023/01/25 01:48:23;;;;;;;24.73;9.98;;;;;;;;;;6158784;23;20098;-85
2023/01/25 01:50:50;;;;;;;24.42;11.45;;;;;;;;;;6185303;23;20072;-88
2023/01/25 01:53:16;;;;;;;20.50;9.30;;;;;;;;;;6168255;23;20009;-86
2023/01/25 01:55:41;;;;;;;20.35;9.45;;;;;;;;;;6164349;23;20012;-86
2023/01/25 01:58:06;;;;;;;23.30;9.98;;;;;;;;;;6134534;23;20008;-88
2023/01/25 02:00:34;;;;;;;23.10;9.27;;;;;;;;;;6135036;23;20445;-87
2023/01/25 02:02:59;;;;;;;24.73;10.27;;;;;;;;;;6187380;23;20068;-85
2023/01/25 02:05:26;;;;;;;22.92;10.60;;;;;;;;;;6137017;23;20005;-85
2023/01/25 02:07:52;;;;;;;20.67;9.57;;;;;;;;;;6188474;23;20015;-88
2023/01/25 02:10:17;;;;;;;20.25;9.13;;;;;;;;;;6136167;23;20028;-87
2023/01/25 02:12:43;;;;;;;22.73;9.65;;;;;;;;;;6141992;23;20005;-86
2023/01/25 02:15:09;;;;;;;22.10;10.30;;;;;;;;;;6141893;23;20005;-86
2023/01/25 02:17:35;;;;;;;21.48;9.18;;;;;;;;;;6159243;23;20020;-87
2023/01/25 02:20:13;;;;;;;22.70;10.00;;;;;;;;;;6115011;23;20009;-87
2023/01/25 02:22:41;;;;;;;20.67;9.73;;;;;;;;;;6204973;23;20048;-87
2023/01/25 02:25:10;;;;;;;22.00;10.80;;;;;;;;;;6141413;23;20092;-88
2023/01/25 02:27:37;;;;;;;23.63;10.45;;;;;;;;;;6159669;23;20409;-85
2023/01/25 02:30:03;;;;;;;24.40;10.38;;;;;;;;;;6159649;23;20009;-86
2023/01/25 02:32:28;;;;;;;22.92;9.23;;;;;;;;;;6197073;23;19997;-88
2023/01/25 02:34:54;;;;;;;18.83;8.55;;;;;;;;;;6164386;23;20089;-86
2023/01/25 02:37:19;;;;;;;21.45;10.30;;;;;;;;;;6134072;23;20378;-86
2023/01/25 02:39:45;;;;;;;22.42;10.35;;;;;;;;;;6159282;23;20001;-85
2023/01/25 02:42:10;;;;;;;21.52;9.82;;;;;;;;;;6110259;23;20072;-85
2023/01/25 02:44:36;;;;;;;24.88;11.20;;;;;;;;;;6111327;23;20009;-86
2023/01/25 02:47:01;;;;;;;25.15;10.38;;;;;;;;;;6158152;23;20013;-86
2023/01/25 02:49:27;;;;;;;20.92;10.07;;;;;;;;;;6159062;23;19997;-86
2023/01/25 02:51:56;;;;;;;25.20;10.32;;;;;;;;;;6195149;23;20029;-88
2023/01/25 02:54:22;;;;;;;25.38;11.10;;;;;;;;;;6163470;23;20024;-87
2023/01/25 02:56:47;;;;;;;24.55;10.07;;;;;;;;;;6133636;23;20024;-86
2023/01/25 02:59:13;;;;;;;25.25;10.88;;;;;;;;;;6133942;23;20321;-87
2023/01/25 03:01:39;;;;;;;24.58;11.48;;;;;;;;;;6184672;23;20005;-87
2023/01/25 03:04:04;;;;;;;23.77;11.73;;;;;;;;;;6133758;23;20004;-85
2023/01/25 03:06:31;;;;;;;22.80;9.80;;;;;;;;;;6158824;23;20005;-86
2023/01/25 03:08:56;;;;;;;25.83;9.55;;;;;;;;;;6134607;23;20095;-86
2023/01/25 03:11:21;;;;;;;25.40;10.95;;;;;;;;;;6118665;23;20001;-87
2023/01/25 03:13:47;;;;;;;23.52;10.70;;;;;;;;;;6165412;23;20005;-86
2023/01/25 03:16:12;;;;;;;22.90;11.73;;;;;;;;;;6133488;23;20032;-87
2023/01/25 03:18:38;;;;;;;32.08;12.60;;;;;;;;;;6184210;23;20037;-87
2023/01/25 03:21:12;;;;;;;26.20;10.80;;;;;;;;;;6134177;23;20008;-86
2023/01/25 03:23:41;;;;;;;21.83;9.48;;;;;;;;;;6176360;23;20012;-86
2023/01/25 03:26:29;;;;;;;26.20;12.85;;;;;;;;;;6163036;23;20005;-86
2023/01/25 03:28:55;;;;;;;25.92;11.27;;;;;;;;;;6184457;23;20058;-88
2023/01/25 03:31:21;;;;;;;22.08;9.98;;;;;;;;;;6175425;23;19989;-87
2023/01/25 03:33:48;;;;;;;23.50;10.50;;;;;;;;;;6139395;23;20076;-87
2023/01/25 03:36:14;;;;;;;26.70;12.77;;;;;;;;;;6134222;23;20001;-86
2023/01/25 03:38:39;;;;;;;27.20;11.68;;;;;;;;;;6157991;23;20074;-87
2023/01/25 03:41:05;;;;;;;23.27;11.63;;;;;;;;;;6158249;23;20001;-87
2023/01/25 03:43:30;;;;;;;25.42;11.88;;;;;;;;;;6184508;23;20080;-86
2023/01/25 03:45:57;;;;;;;21.98;11.00;;;;;;;;;;6133628;23;20020;-86
2023/01/25 03:48:22;;;;;;;22.98;11.25;;;;;;;;;;6158111;23;20083;-86
2023/01/25 03:50:52;;;;;;;30.02;13.88;;;;;;;;;;6200126;23;20028;-85
2023/01/25 03:53:28;;;;;;;27.75;12.45;;;;;;;;;;6134516;23;20036;-87
2023/01/25 03:55:59;;;;;;;30.88;13.55;;;;;;;;;;6160556;23;20005;-87
2023/01/25 03:58:25;;;;;;;26.17;11.90;;;;;;;;;;6158392;23;19997;-86
2023/01/25 04:00:50;;;;;;;30.92;13.27;;;;;;;;;;6184098;23;20005;-86
2023/01/25 04:03:18;;;;;;;28.15;13.32;;;;;;;;;;6133419;23;20040;-86
2023/01/25 04:05:43;;;;;;;31.20;14.35;;;;;;;;;;6159098;23;20059;-87
2023/01/25 04:08:09;;;;;;;32.17;13.52;;;;;;;;;;6158333;23;20036;-87
2023/01/25 04:10:34;;;;;;;29.73;13.45;;;;;;;;;;6173844;23;20012;-87
2023/01/25 04:13:00;;;;;;;27.85;12.40;;;;;;;;;;6159303;23;20005;-85
2023/01/25 04:15:25;;;;;;;30.80;13.55;;;;;;;;;;6185549;23;20013;-84
2023/01/25 04:17:50;;;;;;;25.95;11.88;;;;;;;;;;6167626;23;20417;-86
2023/01/25 04:20:16;;;;;;;26.67;12.07;;;;;;;;;;6196343;23;20001;-86
2023/01/25 04:22:41;;;;;;;29.67;13.57;;;;;;;;;;6159414;23;20049;-85
2023/01/25 04:25:07;;;;;;;31.38;15.43;;;;;;;;;;6156145;23;20040;-88
2023/01/25 04:27:33;;;;;;;25.92;10.32;;;;;;;;;;6160465;23;20059;-85
2023/01/25 04:29:58;;;;;;;24.05;12.13;;;;;;;;;;6203345;23;20396;-86
2023/01/25 04:32:23;;;;;;;29.38;12.98;;;;;;;;;;6159207;23;20036;-86
2023/01/25 04:34:49;;;;;;;44.65;17.73;;;;;;;;;;6183787;23;20753;-86
2023/01/25 04:37:14;;;;;;;35.08;14.68;;;;;;;;;;6157715;23;20012;-85
2023/01/25 04:39:40;;;;;;;35.58;16.35;;;;;;;;;;6157957;23;20008;-85
2023/01/25 04:42:05;;;;;;;33.88;15.25;;;;;;;;;;6183729;23;20056;-86
2023/01/25 04:44:31;;;;;;;31.27;14.05;;;;;;;;;;6159499;23;20001;-84
2023/01/25 04:46:56;;;;;;;31.70;14.23;;;;;;;;;;6159527;23;20475;-85
2023/01/25 04:49:22;;;;;;;32.65;13.18;;;;;;;;;;6149482;23;20048;-85
2023/01/25 04:51:47;;;;;;;31.00;13.38;;;;;;;;;;6194926;23;20356;-86
2023/01/25 04:54:13;;;;;;;36.63;15.48;;;;;;;;;;6186434;23;20413;-86
2023/01/25 04:56:38;;;;;;;30.30;14.32;;;;;;;;;;6160943;23;20055;-87
2023/01/25 04:59:04;;;;;;;31.73;14.43;;;;;;;;;;6186730;23;20056;-87
2023/01/25 05:01:32;;;;;;;28.88;13.05;;;;;;;;;;6186979;23;20005;-88
2023/01/25 05:03:57;;;;;;;28.13;12.27;;;;;;;;;;6160173;23;19997;-86
2023/01/25 05:06:23;;;;;;;28.33;13.70;;;;;;;;;;6185742;23;20411;-86
2023/01/25 05:08:48;;;;;;;32.10;14.07;;;;;;;;;;6197574;23;20092;-87
2023/01/25 05:11:14;;;;;;;33.45;14.98;;;;;;;;;;6139571;23;20009;-87
2023/01/25 05:13:39;;;;;;;33.95;15.23;;;;;;;;;;6136326;23;19997;-86
2023/01/25 05:16:05;;;;;;;32.35;13.82;;;;;;;;;;6186281;23;20024;-88
2023/01/25 05:18:30;;;;;;;31.70;14.32;;;;;;;;;;6162258;23;20044;-85
2023/01/25 05:20:56;;;;;;;29.23;13.13;;;;;;;;;;6112349;23;20009;-87
2023/01/25 05:23:21;;;;;;;26.88;13.27;;;;;;;;;;6186160;23;20005;-87
2023/01/25 05:28:31;;;;;;;32.85;13.52;;;;;;;;;;6199581;23;20457;-86
2023/01/25 05:30:57;;;;;;;28.48;13.13;;;;;;;;;;6135590;23;20013;-87
2023/01/25 05:33:22;;;;;;;29.80;14.32;;;;;;;;;;6187896;23;20000;-77
2023/01/25 05:35:48;;;;;;;36.38;13.82;;;;;;;;;;6134432;23;20005;-78
2023/01/25 05:38:13;;;;;;;36.58;14.90;;;;;;;;;;6158877;23;20124;-78
2023/01/25 05:40:39;;;;;;;35.85;14.35;;;;;;;;;;6184378;23;20051;-78
2023/01/25 05:43:04;;;;;;;28.38;12.25;;;;;;;;;;6158940;23;20005;-77
2023/01/25 05:45:29;;;;;;;34.30;13.88;;;;;;;;;;6184713;23;20009;-77
2023/01/25 05:47:56;;;;;;;31.15;13.23;;;;;;;;;;6183458;23;20005;-77
2023/01/25 05:50:22;;;;;;;33.05;14.73;;;;;;;;;;6161064;23;20005;-77
2023/01/25 05:52:47;;;;;;;33.83;13.48;;;;;;;;;;6162876;23;20055;-89
2023/01/25 05:55:13;;;;;;;33.15;14.35;;;;;;;;;;6139850;23;20077;-89
2023/01/25 05:57:39;;;;;;;31.23;13.32;;;;;;;;;;6193532;23;20004;-89
2023/01/25 06:00:05;;;;;;;29.30;13.63;;;;;;;;;;6139570;23;20005;-89
2023/01/25 06:02:31;;;;;;;31.95;13.80;;;;;;;;;;6141465;23;20057;-92
2023/01/25 06:04:58;;;;;;;37.63;14.82;;;;;;;;;;6170523;23;20028;-89
2023/01/25 06:07:23;;;;;;;34.05;13.63;;;;;;;;;;6151291;23;20012;-89
2023/01/25 06:09:49;;;;;;;34.33;15.82;;;;;;;;;;6144152;23;20001;-88
2023/01/25 06:12:15;;;;;;;32.00;12.93;;;;;;;;;;6165896;23;20471;-89
2023/01/25 06:14:41;;;;;;;35.83;14.02;;;;;;;;;;6168655;23;20005;-91
2023/01/25 06:17:06;;;;;;;30.35;12.40;;;;;;;;;;6194473;23;20061;-91
2023/01/25 06:19:32;;;;;;;42.30;16.40;;;;;;;;;;6139787;23;20328;-89
2023/01/25 06:22:16;;;;;;;38.63;14.90;;;;;;;;;;6189772;23;20044;-89
2023/01/25 06:24:41;;;;;;;27.58;11.05;;;;;;;;;;6170945;23;20016;-90
2023/01/25 06:27:07;;;;;;;37.47;13.63;;;;;;;;;;6177318;23;20009;-88
2023/01/25 06:29:33;;;;;;;33.63;13.57;;;;;;;;;;6152261;23;20016;-89
2023/01/25 06:31:58;;;;;;;25.83;11.60;;;;;;;;;;6145345;23;20056;-89
2023/01/25 06:34:27;;;;;;;31.27;13.57;;;;;;;;;;6173778;23;20009;-88
2023/01/25 06:36:53;;;;;;;37.28;13.88;;;;;;;;;;6195270;23;20057;-88
2023/01/25 06:39:18;;;;;;;34.80;14.88;;;;;;;;;;6192684;23;20013;-90
2023/01/25 06:41:44;;;;;;;21.42;10.40;;;;;;;;;;6192227;23;20092;-89
2023/01/25 06:44:12;;;;;;;35.83;13.23;;;;;;;;;;6198221;23;20016;-89
2023/01/25 06:46:38;;;;;;;35.50;15.88;;;;;;;;;;6175388;23;20008;-88
2023/01/25 06:49:03;;;;;;;37.80;14.70;;;;;;;;;;6204809;23;19989;-90
2023/01/25 06:51:29;;;;;;;33.85;14.27;;;;;;;;;;6180385;23;20009;-87
2023/01/25 06:53:54;;;;;;;26.85;11.90;;;;;;;;;;6182864;23;20019;-88
2023/01/25 06:56:21;;;;;;;33.05;14.48;;;;;;;;;;6182824;23;20020;-88
2023/01/25 06:58:50;;;;;;;31.38;14.48;;;;;;;;;;6179705;23;20012;-88
2023/01/25 07:01:20;;;;;;;26.02;12.07;;;;;;;;;;6155964;23;20048;-85
2023/01/25 07:03:54;;;;;;;39.47;17.70;;;;;;;;;;6161879;23;20001;-86
2023/01/25 07:06:20;;;;;;;32.20;13.50;;;;;;;;;;6210396;23;19997;-90
2023/01/25 07:08:46;;;;;;;38.30;17.73;;;;;;;;;;6161026;23;20005;-87
2023/01/25 07:11:14;;;;;;;26.48;12.65;;;;;;;;;;6178008;23;20009;-87
2023/01/25 07:13:42;;;;;;;37.58;16.15;;;;;;;;;;6171757;23;20052;-86
2023/01/25 07:16:10;;;;;;;30.63;15.93;;;;;;;;;;6205732;23;20016;-89
2023/01/25 07:18:39;;;;;;;31.80;13.82;;;;;;;;;;6179545;23;20036;-89
2023/01/25 07:21:06;;;;;;;34.28;14.80;;;;;;;;;;6203460;23;20005;-91
2023/01/25 07:23:32;;;;;;;26.70;10.43;;;;;;;;;;6151522;23;20009;-90
2023/01/25 07:25:58;;;;;;;31.63;14.73;;;;;;;;;;6154979;23;20025;-88
2023/01/25 07:28:24;;;;;;;29.00;11.65;;;;;;;;;;6150197;23;20009;-88
2023/01/25 07:30:50;;;;;;;31.67;12.82;;;;;;;;;;6193880;23;20063;-90
2023/01/25 07:33:16;;;;;;;35.05;16.63;;;;;;;;;;6170123;23;20005;-91
2023/01/25 07:35:42;;;;;;;38.90;17.20;;;;;;;;;;6194025;23;20001;-90
2023/01/25 07:38:08;;;;;;;36.65;14.93;;;;;;;;;;6194356;23;20005;-87
2023/01/25 07:41:03;;;;;;;30.92;13.57;;;;;;;;;;6148524;23;20056;-88
2023/01/25 07:43:40;;;;;;;37.08;14.65;;;;;;;;;;6137983;23;20036;-89
2023/01/25 07:46:16;;;;;;;36.83;16.35;;;;;;;;;;6180515;23;20035;-92
2023/01/25 07:48:49;;;;;;;35.47;12.82;;;;;;;;;;6182767;23;20208;-93
2023/01/25 07:51:36;;;;;;;49.05;19.30;;;;;;;;;;6170053;23;20021;-90
2023/01/25 07:54:02;;;;;;;40.67;15.38;;;;;;;;;;6203648;23;20009;-88
2023/01/25 07:56:32;;;;;;;55.13;15.90;;;;;;;;;;6205256;23;20012;-94
2023/01/25 07:58:58;;;;;;;55.17;17.15;;;;;;;;;;6199946;23;20005;-93
2023/01/25 08:01:27;;;;;;;39.58;15.57;;;;;;;;;;6147634;23;20001;-92
2023/01/25 08:03:57;;;;;;;37.38;14.65;;;;;;;;;;6168200;23;20024;-92
2023/01/25 08:06:34;;;;;;;34.00;15.07;;;;;;;;;;6152496;23;20057;-92
2023/01/25 08:08:59;;;;;;;50.13;17.08;;;;;;;;;;6148377;23;20009;-92
2023/01/25 08:11:26;;;;;;;26.77;11.95;;;;;;;;;;6148037;23;20057;-89
2023/01/25 08:13:52;;;;;;;25.05;11.80;;;;;;;;;;6147052;23;20009;-92
2023/01/25 08:16:25;;;;;;;21.48;9.70;;;;;;;;;;6120009;23;20079;-92
2023/01/25 08:18:57;;;;;;;21.10;10.43;;;;;;;;;;6172905;23;20004;-92
2023/01/25 08:21:28;;;;;;;21.42;9.63;;;;;;;;;;6156579;23;20025;-91
2023/01/25 08:23:57;;;;;;;21.67;10.05;;;;;;;;;;6180337;23;20020;-86
2023/01/25 08:26:22;;;;;;;63.45;23.20;;;;;;;;;;6180610;23;20013;-91
2023/01/25 08:28:54;;;;;;;58.67;21.70;;;;;;;;;;6173244;23;20005;-92
2023/01/25 08:31:24;;;;;;;23.90;10.77;;;;;;;;;;6157312;23;20076;-89
2023/01/25 08:33:50;;;;;;;;;;;;;;;;;;6177322;23;20013;-91
2023/01/25 08:36:17;;;;;;;35.35;12.85;;;;;;;;;;6176409;23;19919;-90
2023/01/25 08:38:43;;;;;;;20.27;9.45;;;;;;;;;;6171797;23;20009;-90
2023/01/25 08:41:10;;;;;;;19.77;9.02;;;;;;;;;;6194237;23;20005;-90
2023/01/25 08:43:37;;;;;;;23.55;10.60;;;;;;;;;;6170357;23;20005;-89
2023/01/25 08:46:03;;;;;;;38.00;14.38;;;;;;;;;;6180775;23;20001;-91
2023/01/25 08:48:28;;;;;;;26.38;10.18;;;;;;;;;;6147587;23;20009;-89
2023/01/25 08:50:53;;;;;;;28.02;10.65;;;;;;;;;;6174118;23;20005;-89
2023/01/25 08:53:19;;;;;;;55.38;19.15;;;;;;;;;;6172671;23;20008;-88
2023/01/25 08:55:46;;;;;;;65.25;22.25;;;;;;;;;;6198156;23;20001;-92
2023/01/25 08:58:24;;;;;;;45.85;16.95;;;;;;;;;;6177561;23;20009;-90
2023/01/25 09:00:59;;;;;;;34.53;12.25;;;;;;;;;;6178489;23;20016;-89
2023/01/25 09:03:26;;;;;;;40.35;14.82;;;;;;;;;;6184471;23;20037;-89
2023/01/25 09:05:52;;;;;;;32.97;14.07;;;;;;;;;;6184163;23;20004;-90
2023/01/25 09:08:18;;;;;;;27.02;10.48;;;;;;;;;;6180919;23;20392;-92
2023/01/25 09:10:43;;;;;;;33.95;13.90;;;;;;;;;;6208198;23;20016;-92
2023/01/25 09:13:09;;;;;;;25.75;11.10;;;;;;;;;;6149550;23;20428;-90
2023/01/25 09:15:34;;;;;;;21.02;10.43;;;;;;;;;;6151063;23;20005;-90
2023/01/25 09:18:03;;;;;;;38.95;17.10;;;;;;;;;;6200523;23;19997;-90
2023/01/25 09:20:28;;;;;;;23.40;10.88;;;;;;;;;;6206539;23;19999;-89
2023/01/25 09:22:54;;;;;;;25.23;10.88;;;;;;;;;;6136059;23;20000;-89
2023/01/25 09:25:21;;;;;;;26.33;10.65;;;;;;;;;;6185307;23;20005;-90
2023/01/25 09:27:50;;;;;;;30.58;9.82;;;;;;;;;;6211522;23;20060;-90
2023/01/25 09:30:17;;;;;;;26.67;11.75;;;;;;;;;;6207326;23;20013;-88
2023/01/25 09:32:43;;;;;;;18.92;8.10;;;;;;;;;;6178571;23;19993;-92
2023/01/25 09:35:10;;;;;;;31.35;14.77;;;;;;;;;;6209012;23;20020;-91
2023/01/25 09:37:40;;;;;;;28.25;11.00;;;;;;;;;;6186318;23;20012;-92
2023/01/25 09:40:12;;;;;;;24.83;11.52;;;;;;;;;;6204157;23;20009;-91
2023/01/25 09:42:41;;;;;;;20.50;10.05;;;;;;;;;;6159262;23;19989;-91
2023/01/25 09:46:14;;;;;;;23.08;10.23;;;;;;;;;;6206567;23;19992;-89
2023/01/25 09:51:29;;;;;;;22.90;10.70;;;;;;;;;;6210738;23;20064;-84
2023/01/25 09:53:59;;;;;;;21.83;9.85;;;;;;;;;;6165036;23;20045;-91
2023/01/25 09:56:32;;;;;;;;;;;;;;;;;;6210018;23;20005;-90
2023/01/25 09:59:08;;;;;;;15.68;6.93;;;;;;;;;;6208882;23;19908;-91
2023/01/25 10:01:52;;;;;;;20.88;9.60;;;;;;;;;;6186348;23;20009;-89
2023/01/25 10:04:25;;;;;;;21.67;9.10;;;;;;;;;;6203310;23;20475;-90
2023/01/25 10:07:16;;;;;;;20.17;9.30;;;;;;;;;;6178236;23;20005;-92
2023/01/25 10:09:41;;;;;;;21.02;10.40;;;;;;;;;;6178418;23;20005;-90
2023/01/25 10:12:22;;;;;;;20.50;9.07;;;;;;;;;;6203725;23;20005;-91
2023/01/25 10:14:49;;;;;;;25.27;11.82;;;;;;;;;;6205653;23;20048;-88
2023/01/25 10:17:34;;;;;;;25.40;9.23;;;;;;;;;;6210182;23;20008;-92
2023/01/25 10:20:00;;;;;;;23.15;9.80;;;;;;;;;;6202304;23;20001;-93
2023/01/25 10:22:28;;;;;;;21.58;8.88;;;;;;;;;;6207570;23;20035;-91
2023/01/25 10:25:05;;;;;;;22.80;10.15;;;;;;;;;;6171682;23;20028;-91
2023/01/25 10:27:37;;;;;;;24.27;10.40;;;;;;;;;;6201522;23;20080;-91
2023/01/25 10:30:20;;;;;;;20.88;9.82;;;;;;;;;;6208043;23;20001;-88
2023/01/25 10:32:45;;;;;;;22.67;9.95;;;;;;;;;;6160606;23;20068;-91
2023/01/25 10:35:21;;;;;;;20.55;9.13;;;;;;;;;;6206373;23;20330;-92
2023/01/25 10:37:54;;;;;;;19.63;9.55;;;;;;;;;;6153938;23;20068;-91
2023/01/25 10:40:28;;;;;;;19.77;9.00;;;;;;;;;;6203707;23;20001;-91
2023/01/25 10:43:01;;;;;;;17.02;8.32;;;;;;;;;;6204926;23;20016;-92
2023/01/25 10:45:26;;;;;;;20.23;8.40;;;;;;;;;;6151732;23;20001;-92
2023/01/25 10:47:56;;;;;;;22.95;11.55;;;;;;;;;;6202529;23;20032;-91
2023/01/25 10:50:41;;;;;;;21.58;10.93;;;;;;;;;;6180060;23;19997;-92
2023/01/25 10:53:30;;;;;;;23.58;9.90;;;;;;;;;;6185073;23;20041;-85
2023/01/25 10:56:11;;;;;;;22.38;10.35;;;;;;;;;;6176564;23;20017;-82
2023/01/25 10:58:47;;;;;;;24.17;12.00;;;;;;;;;;6185972;23;20371;-82
2023/01/25 11:01:26;;;;;;;21.35;9.13;;;;;;;;;;6185818;23;20008;-81
2023/01/25 11:03:52;;;;;;;22.45;9.65;;;;;;;;;;6187260;23;20048;-81
2023/01/25 11:06:32;;;;;;;23.60;9.57;;;;;;;;;;6192472;23;20001;-82
2023/01/25 11:08:57;;;;;;;20.52;8.55;;;;;;;;;;6165738;23;20409;-80
2023/01/25 11:11:31;;;;;;;21.90;10.45;;;;;;;;;;6190910;23;20007;-84
2023/01/25 11:13:56;;;;;;;27.25;11.98;;;;;;;;;;6184005;23;20009;-85
2023/01/25 11:16:35;;;;;;;28.83;13.80;;;;;;;;;;6187117;23;20005;-84
2023/01/25 11:19:01;;;;;;;20.90;10.93;;;;;;;;;;6184746;23;20095;-81
2023/01/25 11:21:31;;;;;;;36.50;16.17;;;;;;;;;;6161486;23;20076;-80
2023/01/25 11:24:00;;;;;;;26.13;13.20;;;;;;;;;;6187861;23;20034;-78
2023/01/25 11:26:25;;;;;;;34.60;15.93;;;;;;;;;;6187602;23;20001;-81
2023/01/25 11:28:51;;;;;;;32.00;13.50;;;;;;;;;;6187525;23;20063;-83
2023/01/25 11:31:19;;;;;;;26.35;12.25;;;;;;;;;;6169249;23;20013;-80
2023/01/25 11:33:45;;;;;;;17.00;8.57;;;;;;;;;;6191151;23;20058;-82
2023/01/25 11:36:16;;;;;;;19.60;9.07;;;;;;;;;;6166702;23;20001;-83
2023/01/25 11:38:55;;;;;;;24.98;11.95;;;;;;;;;;6187271;23;20009;-82
2023/01/25 11:41:29;;;;;;;23.02;10.80;;;;;;;;;;6189943;23;20011;-81
2023/01/25 11:43:55;;;;;;;20.73;9.45;;;;;;;;;;6162336;23;20020;-83
2023/01/25 11:46:23;;;;;;;17.77;8.60;;;;;;;;;;6187854;23;20032;-81
2023/01/25 11:49:07;;;;;;;19.23;9.80;;;;;;;;;;6191560;23;20015;-82
2023/01/25 11:51:49;;;;;;;15.38;7.20;;;;;;;;;;6185624;23;20421;-82
2023/01/25 11:54:33;;;;;;;18.60;8.95;;;;;;;;;;6190410;23;20001;-81
2023/01/25 11:57:25;;;;;;;17.65;8.82;;;;;;;;;;6168643;23;19997;-86
2023/01/25 12:00:15;;;;;;;17.20;8.68;;;;;;;;;;6190974;23;20016;-86
2023/01/25 12:02:48;;;;;;;19.55;9.60;;;;;;;;;;6194368;23;20001;-86
2023/01/25 12:05:37;;;;;;;17.88;8.85;;;;;;;;;;6197018;23;20005;-86
2023/01/25 12:08:27;;;;;;;17.60;8.23;;;;;;;;;;6177614;23;20348;-84
2023/01/25 12:10:58;;;;;;;16.50;7.97;;;;;;;;;;6203389;23;19997;-85
2023/01/25 12:13:58;;;;;;;15.75;7.40;;;;;;;;;;6205917;23;20341;-88
2023/01/25 12:16:59;;;;;;;21.30;10.43;;;;;;;;;;6203717;23;20019;-85
2023/01/25 12:19:52;;;;;;;16.92;7.95;;;;;;;;;;6165943;23;20005;-85
2023/01/25 12:22:31;;;;;;;23.98;8.43;;;;;;;;;;6199619;23;20416;-84
2023/01/25 12:25:14;;;;;;;32.75;10.40;;;;;;;;;;6198746;23;20017;-84
2023/01/25 12:28:05;;;;;;;20.10;7.03;;;;;;;;;;6167428;23;20396;-87
2023/01/25 12:30:52;;;;;;;;;;;;;;;;;;6170982;23;20001;-84
2023/01/25 12:33:40;;;;;;;27.08;10.32;;;;;;;;;;6189336;23;19908;-83
2023/01/25 12:36:26;;;;;;;25.20;9.15;;;;;;;;;;6188889;23;20032;-85
2023/01/25 12:38:58;;;;;;;31.83;12.45;;;;;;;;;;6187265;23;20032;-86
2023/01/25 12:41:42;;;;;;;22.02;9.30;;;;;;;;;;6165234;23;20005;-85
2023/01/25 12:44:10;;;;;;;31.85;12.20;;;;;;;;;;6189424;23;20028;-83
2023/01/25 12:46:44;;;;;;;24.88;10.18;;;;;;;;;;6184847;23;20067;-84
2023/01/25 12:49:37;;;;;;;25.13;11.40;;;;;;;;;;6185540;23;20007;-84
2023/01/25 12:52:05;;;;;;;29.23;12.77;;;;;;;;;;6137098;23;20071;-83
2023/01/25 12:54:37;;;;;;;23.55;11.00;;;;;;;;;;6159062;23;20339;-84
2023/01/25 12:57:28;;;;;;;14.57;8.32;;;;;;;;;;6184748;23;20345;-82
2023/01/25 13:00:15;;;;;;;32.05;13.02;;;;;;;;;;6160352;23;20011;-83
2023/01/25 13:02:59;;;;;;;14.32;7.55;;;;;;;;;;6193679;23;20039;-84
2023/01/25 13:05:36;;;;;;;33.65;12.88;;;;;;;;;;6189792;23;20008;-83
2023/01/25 13:08:22;;;;;;;26.35;12.43;;;;;;;;;;6165360;23;20012;-84
2023/01/25 13:10:52;;;;;;;18.30;7.80;;;;;;;;;;6190523;23;19997;-85
2023/01/25 13:13:28;;;;;;;27.35;12.02;;;;;;;;;;6164245;23;20410;-85
2023/01/25 13:15:54;;;;;;;17.10;7.45;;;;;;;;;;6188354;23;19997;-84
2023/01/25 13:18:32;;;;;;;22.58;8.77;;;;;;;;;;6138468;23;20028;-83
2023/01/25 13:20:59;;;;;;;28.02;10.68;;;;;;;;;;6190247;23;20001;-85
2023/01/25 13:23:46;;;;;;;21.38;8.48;;;;;;;;;;6187227;23;20001;-82
2023/01/25 13:26:20;;;;;;;26.60;11.18;;;;;;;;;;6164351;23;20011;-81
2023/01/25 13:28:57;;;;;;;16.27;7.50;;;;;;;;;;6191120;23;20048;-81
2023/01/25 13:31:38;;;;;;;18.58;8.18;;;;;;;;;;6139396;23;20013;-84
2023/01/25 13:34:08;;;;;;;18.08;7.80;;;;;;;;;;6188601;23;20005;-81
2023/01/25 13:36:39;;;;;;;19.20;9.85;;;;;;;;;;6188180;23;20080;-84
2023/01/25 13:39:23;;;;;;;22.40;9.90;;;;;;;;;;6190695;23;20103;-82
2023/01/25 13:42:12;;;;;;;15.27;7.68;;;;;;;;;;6193101;23;20001;-82
2023/01/25 13:44:41;;;;;;;16.35;7.55;;;;;;;;;;6180268;23;20417;-84
2023/01/25 13:47:10;;;;;;;14.07;6.32;;;;;;;;;;6189119;23;20005;-81
2023/01/25 13:49:47;;;;;;;22.73;9.93;;;;;;;;;;6162656;23;20018;-81
2023/01/25 13:52:14;;;;;;;16.23;7.10;;;;;;;;;;6164257;23;20012;-82
2023/01/25 13:54:46;;;;;;;11.63;5.75;;;;;;;;;;6138619;23;20009;-80
2023/01/25 13:57:14;;;;;;;11.57;6.43;;;;;;;;;;6163966;23;20088;-80
2023/01/25 13:59:39;;;;;;;10.68;5.80;;;;;;;;;;6190531;23;20032;-83
2023/01/25 14:02:25;;;;;;;10.63;5.53;;;;;;;;;;6187555;23;20016;-81
2023/01/25 14:04:50;;;;;;;10.30;5.40;;;;;;;;;;6186542;23;20075;-80
2023/01/25 14:07:20;;;;;;;11.07;5.10;;;;;;;;;;6138340;23;20005;-80
2023/01/25 14:09:47;;;;;;;11.00;5.13;;;;;;;;;;6163937;23;20001;-82
2023/01/25 14:12:25;;;;;;;11.82;5.40;;;;;;;;;;6191765;23;20067;-81
2023/01/25 14:14:51;;;;;;;12.13;6.13;;;;;;;;;;6183932;23;20083;-80
2023/01/25 14:17:17;;;;;;;18.20;7.55;;;;;;;;;;6184542;23;20008;-85
2023/01/25 14:19:47;;;;;;;66.72;20.48;;;;;;;;;;6184770;23;20096;-83
2023/01/25 14:22:26;;;;;;;30.58;10.82;;;;;;;;;;6183011;23;20452;-85
2023/01/25 14:25:00;;;;;;;16.02;7.60;;;;;;;;;;6158356;23;20001;-80
2023/01/25 14:27:26;;;;;;;10.60;5.63;;;;;;;;;;6184859;23;20008;-82
2023/01/25 14:29:51;;;;;;;13.75;6.55;;;;;;;;;;6157989;23;20451;-82
2023/01/25 14:32:19;;;;;;;12.52;6.00;;;;;;;;;;6183712;23;20429;-80
2023/01/25 14:34:44;;;;;;;13.95;6.55;;;;;;;;;;6159255;23;20368;-79
2023/01/25 14:37:20;;;;;;;10.05;4.43;;;;;;;;;;6184796;23;20083;-80
2023/01/25 14:39:46;;;;;;;11.23;5.53;;;;;;;;;;6158971;23;20012;-81
2023/01/25 14:42:11;;;;;;;13.95;6.05;;;;;;;;;;6159049;23;20069;-80
2023/01/25 14:44:37;;;;;;;11.35;5.30;;;;;;;;;;6183065;23;20005;-80